Flight Track Log - Related Links

Times and Time Zones

All times are in EDT time to prevent confusion due to time zone crossing. See the JUS196 flight status page for this flight to view local times or setup timezone preferences in your user account.

Time Position Orientation Groundspeed Altitude Reporting Facility
EDT Latitude Longitude Course Direction KTS MPH feet Rate Location/Type
Wed 02:28:17 AM 32.4508 -93.8389 304° West 137 158 1,000  Level Fort Worth Center
Wed 02:29:11 AM 32.4728 -93.8772 304° West 185 213 2,500 2,037 Climbing Fort Worth Center
Wed 02:30:06 AM 32.4381 -93.9058 215° Southwest 191 220 4,700 2,191 Climbing Fort Worth Center
Wed 02:31:06 AM 32.3908 -93.9397 211° Southwest 204 235 6,700 2,500 Climbing Fort Worth Center
Wed 02:32:06 AM 32.3233 -93.9889 212° Southwest 250 288 9,700 2,550 Climbing Fort Worth Center
Wed 02:33:06 AM 32.2597 -94.0281 208° Southwest 278 320 11,800 2,650 Climbing Fort Worth Center
Wed 02:34:06 AM 32.1817 -94.0753 207° Southwest 300 345 15,000 2,550 Climbing Fort Worth Center
Wed 02:35:06 AM 32.1139 -94.1144 206° Southwest 300 345 16,900 1,950 Climbing Fort Worth Center
Wed 02:36:06 AM 32.0381 -94.1661 210° Southwest 305 351 18,900 1,944 Climbing Fort Worth Center
Wed 02:38:05 AM 31.8731 -94.2589 206° Southwest 334 384 22,700 1,833 Climbing Houston Center
Wed 02:39:06 AM 31.7881 -94.3142 209° Southwest 345 397 24,400 1,587 Climbing Houston Center
Wed 02:40:06 AM 31.6994 -94.3728 209° Southwest 361 415 25,900 1,500 Climbing Houston Center
Wed 02:41:06 AM 31.6092 -94.4325 209° Southwest 369 425 27,400 1,550 Climbing Houston Center
Wed 02:42:06 AM 31.5175 -94.4911 209° Southwest 372 428 29,000 1,550 Climbing Houston Center
Wed 02:43:06 AM 31.4242 -94.5500 208° Southwest 377 434 30,500 1,350 Climbing Houston Center
Wed 02:44:06 AM 31.3317 -94.6075 208° Southwest 375 432 31,700 1,050 Climbing Houston Center
Wed 02:45:06 AM 31.2392 -94.6656 208° Southwest 378 435 32,600 900 Climbing Houston Center
Wed 02:46:06 AM 31.1442 -94.7233 208° Southwest 384 442 33,500 750 Climbing Houston Center
Wed 02:47:06 AM 31.0386 -94.7850 207° Southwest 385 443 34,100 300 Climbing Houston Center
Wed 02:48:06 AM 30.9411 -94.8372 205° Southwest 385 443 34,100  Level Houston Center
Wed 02:49:07 AM 30.8439 -94.8872 204° Southwest 383 441 34,100  Level Houston Center
Wed 02:50:07 AM 30.7472 -94.9375 204° Southwest 380 437 34,100  Level Houston Center
Wed 02:51:07 AM 30.6497 -94.9864 203° Southwest 381 438 34,100  Level Houston Center
Wed 02:52:07 AM 30.5533 -95.0378 205° Southwest 381 438 34,100  Level Houston Center
Wed 02:53:07 AM 30.4558 -95.0883 204° Southwest 384 442 34,100  Level Houston Center
Wed 02:54:07 AM 30.3628 -95.1372 204° Southwest 380 437 34,100  Level Houston Center
Wed 02:55:07 AM 30.2661 -95.1869 204° Southwest 383 441 34,100  Level Houston Center
Wed 02:56:07 AM 30.1700 -95.2381 205° Southwest 382 440 34,100  Level Houston Center
Wed 02:57:07 AM 30.0739 -95.2872 204° Southwest 380 437 34,100  Level Houston Center
Wed 02:58:08 AM 29.9767 -95.3364 204° Southwest 382 440 34,100  Level Houston Center
Wed 02:59:08 AM 29.8811 -95.3875 205° Southwest 382 440 34,100  Level Houston Center
Wed 03:00:08 AM 29.7950 -95.4522 213° Southwest 375 432 34,100  Level Houston Center
Wed 03:01:08 AM 29.7150 -95.5239 218° Southwest 370 426 34,100  Level Houston Center
Wed 03:02:08 AM 29.6361 -95.5961 219° Southwest 367 422 34,100  Level Houston Center
Wed 03:03:08 AM 29.5564 -95.6672 218° Southwest 366 421 34,100  Level Houston Center
Wed 03:04:08 AM 29.4728 -95.7361 216° Southwest 371 427 34,100  Level Houston Center
Wed 03:05:08 AM 29.3917 -95.8042 216° Southwest 365 420 34,100  Level Houston Center
Wed 03:06:08 AM 29.3086 -95.8717 215° Southwest 366 421 34,100  Level Houston Center
Wed 03:07:09 AM 29.2253 -95.9386 215° Southwest 366 421 34,100  Level Houston Center
Wed 03:08:09 AM 29.1261 -96.0039 210° Southwest 370 426 34,100  Level Houston Center
Wed 03:09:09 AM 29.0317 -96.0544 205° Southwest 374 430 34,100  Level Houston Center
Wed 03:10:09 AM 28.9350 -96.1036 204° Southwest 377 434 34,100  Level Houston Center
Wed 03:11:09 AM 28.8408 -96.1547 205° Southwest 374 430 34,100  Level Houston Center
Wed 03:12:09 AM 28.7483 -96.2117 208° Southwest 375 432 34,100  Level Houston Center
Wed 03:13:09 AM 28.6558 -96.2683 208° Southwest 376 433 34,100  Level Houston Center
Wed 03:14:09 AM 28.5614 -96.3214 206° Southwest 378 435 34,100  Level Houston Center
Wed 03:15:10 AM 28.4661 -96.3753 206° Southwest 380 437 34,100  Level Houston Center
Wed 03:16:10 AM 28.3708 -96.4283 206° Southwest 381 438 34,100  Level Houston Center
Wed 03:17:10 AM 28.2742 -96.4831 207° Southwest 384 442 34,100  Level Houston Center
Wed 03:18:10 AM 28.1775 -96.5356 206° Southwest 387 445 34,100  Level Houston Center
Wed 03:19:10 AM 28.0808 -96.5897 206° Southwest 388 447 34,100  Level Houston Center
Wed 03:20:10 AM 27.9856 -96.6439 207° Southwest 384 442 34,100  Level Houston Center
Wed 03:21:10 AM 27.8900 -96.6969 206° Southwest 382 440 34,100  Level Houston Center
Wed 03:22:10 AM 27.7947 -96.7503 206° Southwest 382 440 34,100  Level Houston Center
Wed 03:23:11 AM 27.6983 -96.8036 206° Southwest 385 443 34,100  Level Houston Center
Wed 03:24:11 AM 27.6028 -96.8586 207° Southwest 385 443 34,100  Level Houston Center
Wed 03:25:11 AM 27.5075 -96.9114 206° Southwest 382 440 34,100  Level Houston Center
Wed 03:26:11 AM 27.4239 -96.9567 206° Southwest 383 441 34,100  Level Houston Center
Wed 03:27:11 AM 27.3300 -97.0111 207° Southwest 381 438 34,100  Level Houston Center
Wed 03:28:11 AM 27.2342 -97.0636 206° Southwest 382 440 34,100  Level Houston Center
Wed 03:29:11 AM 27.1386 -97.1169 206° Southwest 381 438 34,100  Level Houston Center
Wed 03:30:11 AM 27.0436 -97.1689 206° Southwest 380 437 34,100  Level Houston Center
Wed 03:31:11 AM 26.9486 -97.2211 206° Southwest 379 436 34,100  Level Houston Center
Wed 03:32:12 AM 26.8439 -97.2806 207° Southwest 379 436 34,100  Level Houston Center
Wed 03:33:12 AM 26.7494 -97.3331 206° Southwest 379 436 34,100  Level Houston Center
Wed 03:34:12 AM 26.6544 -97.3833 205° Southwest 378 435 34,100  Level Houston Center
Wed 03:35:12 AM 26.5531 -97.4400 207° Southwest 378 435 34,100  Level Houston Center
Wed 03:36:12 AM 26.4656 -97.4872 206° Southwest 378 435 34,100  Level Houston Center
Wed 03:37:12 AM 26.3703 -97.5386 206° Southwest 379 436 34,100  Level Houston Center
Wed 03:38:12 AM 26.2747 -97.5900 206° Southwest 380 437 34,100  Level Houston Center
Wed 03:39:12 AM 26.1892 -97.6372 206° Southwest 382 440 34,100  Level Houston Center
Wed 03:40:12 AM 26.0914 -97.6903 206° Southwest 388 447 34,100  Level Houston Center
Wed 03:41:12 AM 25.9811 -97.7500 206° Southwest 388 447 34,100  Level Houston Center
Wed 03:42:13 AM 25.8844 -97.8019 206° Southwest 385 443 34,100  Level Houston Center
Wed 03:44:00 AM 25.7215 -97.8883 206° Southwest  Level FlightAware Approximate
Wed 03:51:00 AM 25.0814 -98.2249 205° Southwest  Level FlightAware Approximate
Wed 03:52:00 AM 24.9900 -98.2730 206° Southwest  Level FlightAware Approximate
Wed 03:53:00 AM 24.8988 -98.3214 206° Southwest  Level FlightAware Approximate
Wed 03:54:00 AM 24.8075 -98.3697 206° Southwest  Level FlightAware Approximate
Wed 03:55:00 AM 24.7163 -98.4180 206° Southwest  Level FlightAware Approximate
Wed 03:56:00 AM 24.6250 -98.4661 206° Southwest  Level FlightAware Approximate
Wed 03:57:00 AM 24.5337 -98.5143 206° Southwest  Level FlightAware Approximate
Wed 03:58:00 AM 24.4424 -98.5623 206° Southwest  Level FlightAware Approximate
Wed 03:59:00 AM 24.3510 -98.6103 206° Southwest  Level FlightAware Approximate
Wed 04:00:00 AM 24.2597 -98.6582 206° Southwest  Level FlightAware Approximate
Wed 04:01:00 AM 24.1683 -98.7060 206° Southwest  Level FlightAware Approximate
Wed 04:02:00 AM 24.0770 -98.7538 206° Southwest  Level FlightAware Approximate
Wed 04:03:00 AM 23.9856 -98.8015 205° Southwest  Level FlightAware Approximate
Wed 04:04:00 AM 23.8942 -98.8491 205° Southwest  Level FlightAware Approximate
Wed 04:05:00 AM 23.8028 -98.8966 205° Southwest  Level FlightAware Approximate
Wed 04:06:00 AM 23.7113 -98.9441 205° Southwest  Level FlightAware Approximate
Wed 04:07:00 AM 23.6170 -98.9840 201° Southwest  Level FlightAware Approximate
Wed 04:08:00 AM 23.5222 -99.0229 201° Southwest  Level FlightAware Approximate
Wed 04:09:00 AM 23.4274 -99.0616 201° Southwest  Level FlightAware Approximate
Wed 04:10:00 AM 23.3326 -99.1003 205° Southwest  Level FlightAware Approximate
Wed 04:11:00 AM 23.2388 -99.1417 201° Southwest  Level FlightAware Approximate
Wed 04:12:00 AM 23.1441 -99.1804 201° Southwest  Level FlightAware Approximate
Wed 04:13:00 AM 23.0493 -99.2191 201° Southwest  Level FlightAware Approximate
Wed 04:14:00 AM 22.9545 -99.2577 201° Southwest  Level FlightAware Approximate
Wed 04:15:00 AM 22.8597 -99.2963 201° Southwest  Level FlightAware Approximate
Wed 04:16:00 AM 22.7649 -99.3348 201° Southwest  Level FlightAware Approximate
Wed 04:17:00 AM 22.6701 -99.3733 201° Southwest  Level FlightAware Approximate
Wed 04:18:00 AM 22.5753 -99.4117 201° Southwest  Level FlightAware Approximate
Wed 04:19:00 AM 22.4805 -99.4501 200° South  Level FlightAware Approximate
Wed 04:20:00 AM 22.3856 -99.4884 200° South  Level FlightAware Approximate
Wed 04:21:00 AM 22.2908 -99.5267 200° South  Level FlightAware Approximate
Wed 04:22:00 AM 22.1959 -99.5649 200° South  Level FlightAware Approximate
Wed 04:23:00 AM 22.1008 -99.6023 200° South  Level FlightAware Approximate
Wed 04:24:00 AM 22.0055 -99.6391 200° South  Level FlightAware Approximate
Wed 04:25:00 AM 21.9101 -99.6758 200° South  Level FlightAware Approximate
Wed 04:26:00 AM 21.8148 -99.7125 200° South  Level FlightAware Approximate
Wed 04:27:00 AM 21.7194 -99.7491 200° South  Level FlightAware Approximate
Wed 04:28:00 AM 21.6241 -99.7857 200° South  Level FlightAware Approximate
Wed 04:29:00 AM 21.5287 -99.8222 200° South  Level FlightAware Approximate
Wed 04:30:00 AM 21.4333 -99.8586 200° South  Level FlightAware Approximate
Wed 04:31:00 AM 21.3379 -99.8951 200° South  Level FlightAware Approximate
Wed 04:32:00 AM 21.2425 -99.9314 200° South  Level FlightAware Approximate
Wed 04:33:00 AM 21.1472 -99.9678 201° Southwest  Level FlightAware Approximate
Wed 04:34:00 AM 21.0523 -100.0058 201° Southwest  Level FlightAware Approximate
Wed 04:35:00 AM 20.9575 -100.0437 200° South  Level FlightAware Approximate
Wed 04:36:00 AM 20.8626 -100.0816 200° South  Level FlightAware Approximate
Wed 04:37:00 AM 20.7694 -100.1236 205° Southwest  Level FlightAware Approximate
Wed 04:38:00 AM 20.6747 -100.1616 199° South  Level FlightAware Approximate
Wed 04:39:00 AM 20.5771 -100.1877 186° South  Level FlightAware Approximate
Wed 04:40:00 AM 20.4764 -100.1989 186° South  Level FlightAware Approximate
Wed 04:41:00 AM 20.3754 -100.2036 183° South  Level FlightAware Approximate
Wed 04:42:00 AM 20.2743 -100.2100 183° South  Level FlightAware Approximate
Wed 04:43:00 AM 20.1732 -100.2163 183° South  Level FlightAware Approximate
Wed 04:44:00 AM 20.0727 -100.2284 187° South  Level FlightAware Approximate
Wed 04:45:00 AM 19.9721 -100.2410 187° South  Level FlightAware Approximate
Wed 04:46:00 AM 19.8716 -100.2536 187° South  Level FlightAware Approximate
Wed 04:47:00 AM 19.7710 -100.2661 187° South  Level FlightAware Approximate
Wed 04:48:00 AM 19.6698 -100.2667 180° South  Level FlightAware Approximate
Wed 04:49:00 AM 19.5789 -100.2700 109° East  Level FlightAware Approximate
Wed 04:50:00 AM 19.5455 -100.1686 108° East  Level FlightAware Approximate
Wed 04:51:00 AM 19.5141 -100.0665 108° East  Level FlightAware Approximate
Wed 04:52:00 AM 19.4827 -99.9644 108° East  Level FlightAware Approximate
Wed 04:53:00 AM 19.4520 -99.8621 108° East  Level FlightAware Approximate
Wed 04:54:00 AM 19.4201 -99.7602 109° East  Level FlightAware Approximate
Wed 04:55:00 AM 19.3796 -99.6655 113° Southeast  Level FlightAware Approximate
Wed 04:56:00 AM 19.3500 -99.5667 North  Level FlightAware Approximate
Wed 04:57:00 AM 19.3371 -99.5660 North  Level Estimated
Wed 04:58:00 AM 19.3371 -99.5660 North  Level Estimated
Wed 04:59:00 AM 19.3371 -99.5660 North  Level Estimated
Wed 05:00:00 AM 19.3371 -99.5660 North  Level Estimated
Wed 05:01:00 AM 19.3371 -99.5660 North  Level Estimated
Wed 05:02:00 AM 19.3371 -99.5660 North  Level Estimated
Wed 05:03:00 AM 19.3371 -99.5660 North  Level Estimated
Wed 05:04:00 AM 19.3371 -99.5660 North  Level Estimated
Wed 05:05:00 AM 19.3371 -99.5660 North  Level Estimated
Wed 05:06:00 AM 19.3371 -99.5660 North  Level Estimated
Wed 05:07:00 AM 19.3371 -99.5660 North  Level Estimated
Wed 05:08:00 AM 19.3371 -99.5660 North  Level Estimated
Wed 05:09:00 AM 19.3371 -99.5660 North  Level Estimated
Wed 05:10:00 AM 19.3371 -99.5660 North  Level Estimated
Wed 05:11:00 AM 19.3371 -99.5660 North  Level Estimated

Login

Don't have an account? Register now (free) for customized features, flight alerts, and more!